OKJ weather

Okayama Airport
Okayama City, Okayama Prefecture, Japan

Public forecast

Using degrees Celsius for public forecast. Weather courtesy of forecast.io.

Current aviation weather report (METAR) for Okayama Airport

Retrieved 2019/10/19 11:00 UTC (7 minutes ago):

RJOB 191100Z 31003KT 230V020 9999 FEW015 BKN060 18/16 Q1017

Aviation forecast (TAF) for Okayama Airport

Retrieved 2019/10/19 06:30 UTC (5 hours ago):

TAF RJOB 190508Z 1906/2012 35006KT 9999 FEW020 SCT045